Station Historical Data
Daily Summary for October 26, 2017 Units:  English    Metric   Both
« Previous Day
Next Day »
Daily Weekly Monthly Yearly Custom
  High: Low: Average:
Temperature: 52.9 °F 35.6 °F 43.3 °F
Dew Point: 42.7 °F 32.7 °F 36.5 °F
Humidity: 95% 51% 78%
Wind Speed: 9.0mph 0.0mph 1.3mph
Wind Gust: 14.0mph - -
Wind- - West
Pressure: 29.92 in 29.82 in -
Precipitation: 0.00 in    
Historical Graphs
 
 
Tabular Data for October 26, 2017
Time Temperature Dew Point Pressure Wind Wind Speed Wind Gust Humidity Rainfall Rate (Hourly)
00:04 43.7 °F 40.7 °F 29.82 in Calm     89% 0.00 in
00:09 43.8 °F 40.8 °F 29.82 in Calm     89% 0.00 in
00:14 43.8 °F 41.1 °F 29.82 in Calm     90% 0.00 in
00:19 43.8 °F 41.1 °F 29.82 in Calm     90% 0.00 in
00:24 43.6 °F 40.6 °F 29.82 in Calm     89% 0.00 in
00:29 43.5 °F 40.5 °F 29.82 in Calm     89% 0.00 in
00:34 43.4 °F 40.4 °F 29.83 in Calm     89% 0.00 in
00:39 43.2 °F 40.5 °F 29.83 in Calm     90% 0.00 in
00:44 43.0 °F 40.0 °F 29.83 in Calm     89% 0.00 in
00:49 42.8 °F 39.8 °F 29.83 in Calm     89% 0.00 in
00:54 42.5 °F 39.8 °F 29.83 in Calm     90% 0.00 in
00:59 42.4 °F 39.7 °F 29.83 in Calm     90% 0.00 in
01:04 42.2 °F 39.5 °F 29.83 in Calm     90% 0.00 in
01:09 42.3 °F 39.6 °F 29.83 in Calm     90% 0.00 in
01:14 42.5 °F 39.8 °F 29.83 in Calm     90% 0.00 in
01:19 42.4 °F 39.7 °F 29.83 in Calm     90% 0.00 in
01:24 42.4 °F 39.7 °F 29.83 in Calm     90% 0.00 in
01:29 42.4 °F 40.0 °F 29.83 in Calm     91% 0.00 in
01:34 42.4 °F 39.7 °F 29.83 in Calm     90% 0.00 in
01:39 42.2 °F 39.5 °F 29.83 in Calm     90% 0.00 in
01:44 41.9 °F 39.2 °F 29.83 in Calm     90% 0.00 in
01:49 41.6 °F 38.9 °F 29.83 in Calm     90% 0.00 in
01:54 41.3 °F 38.6 °F 29.84 in Calm     90% 0.00 in
01:59 40.9 °F 38.2 °F 29.83 in Calm     90% 0.00 in
02:04 40.6 °F 38.2 °F 29.84 in Calm     91% 0.00 in
02:09 40.2 °F 37.5 °F 29.84 in Calm     90% 0.00 in
02:14 40.0 °F 37.6 °F 29.84 in Calm     91% 0.00 in
02:19 39.9 °F 37.5 °F 29.84 in Calm     91% 0.00 in
02:24 39.9 °F 37.5 °F 29.84 in Calm     91% 0.00 in
02:29 39.9 °F 37.5 °F 29.84 in Calm     91% 0.00 in
02:34 39.8 °F 37.4 °F 29.84 in Calm     91% 0.00 in
02:39 39.5 °F 37.1 °F 29.84 in Calm     91% 0.00 in
02:44 39.3 °F 36.9 °F 29.84 in Calm     91% 0.00 in
02:49 39.3 °F 36.9 °F 29.84 in Calm     91% 0.00 in
02:54 39.3 °F 36.9 °F 29.84 in Calm     91% 0.00 in
02:59 39.3 °F 37.2 °F 29.84 in Calm     92% 0.00 in
03:04 39.3 °F 37.2 °F 29.84 in Calm     92% 0.00 in
03:09 39.1 °F 37.0 °F 29.84 in Calm     92% 0.00 in
03:14 38.9 °F 36.8 °F 29.84 in Calm     92% 0.00 in
03:19 39.0 °F 36.9 °F 29.84 in Calm     92% 0.00 in
03:24 39.0 °F 36.9 °F 29.84 in Calm     92% 0.00 in
03:29 39.1 °F 37.0 °F 29.84 in Calm     92% 0.00 in
03:34 39.1 °F 37.0 °F 29.84 in Calm     92% 0.00 in
03:39 38.8 °F 36.7 °F 29.84 in Calm     92% 0.00 in
03:44 38.5 °F 36.4 °F 29.84 in Calm     92% 0.00 in
03:49 38.4 °F 36.3 °F 29.84 in Calm     92% 0.00 in
03:54 38.4 °F 36.3 °F 29.84 in Calm     92% 0.00 in
03:59 38.3 °F 36.2 °F 29.85 in Calm     92% 0.00 in
04:04 38.1 °F 36.0 °F 29.85 in Calm     92% 0.00 in
04:09 38.0 °F 35.9 °F 29.85 in Calm     92% 0.00 in
04:14 37.9 °F 35.8 °F 29.85 in Calm     92% 0.00 in
04:19 37.7 °F 35.6 °F 29.85 in Calm     92% 0.00 in
04:24 37.6 °F 35.5 °F 29.85 in Calm     92% 0.00 in
04:29 37.6 °F 35.5 °F 29.85 in Calm     92% 0.00 in
04:34 37.6 °F 35.8 °F 29.85 in Calm     93% 0.00 in
04:39 37.4 °F 35.3 °F 29.85 in Calm     92% 0.00 in
04:44 37.4 °F 35.6 °F 29.85 in Calm     93% 0.00 in
04:49 37.4 °F 35.3 °F 29.86 in Calm     92% 0.00 in
04:54 37.2 °F 35.1 °F 29.86 in Calm     92% 0.00 in
04:59 37.0 °F 35.2 °F 29.86 in Calm     93% 0.00 in
05:04 36.9 °F 34.8 °F 29.86 in Calm     92% 0.00 in
05:09 36.9 °F 34.8 °F 29.86 in Calm     92% 0.00 in
05:14 36.8 °F 34.7 °F 29.86 in Calm     92% 0.00 in
05:19 36.7 °F 34.6 °F 29.86 in Calm     92% 0.00 in
05:24 36.8 °F 35.0 °F 29.86 in Calm     93% 0.00 in
05:29 36.9 °F 35.1 °F 29.86 in Calm     93% 0.00 in
05:34 36.9 °F 35.1 °F 29.86 in Calm     93% 0.00 in
05:39 36.7 °F 34.9 °F 29.86 in Calm     93% 0.00 in
05:44 36.6 °F 34.8 °F 29.87 in Calm     93% 0.00 in
05:49 36.5 °F 34.7 °F 29.86 in Calm     93% 0.00 in
05:54 36.5 °F 34.7 °F 29.87 in Calm     93% 0.00 in
05:59 36.3 °F 34.5 °F 29.87 in Calm     93% 0.00 in
06:04 36.4 °F 34.6 °F 29.87 in Calm     93% 0.00 in
06:09 36.2 °F 34.4 °F 29.87 in Calm     93% 0.00 in
06:14 36.1 °F 34.3 °F 29.87 in Calm     93% 0.00 in
06:19 36.0 °F 34.2 °F 29.87 in Calm     93% 0.00 in
06:24 36.0 °F 34.2 °F 29.88 in Calm     93% 0.00 in
06:29 36.1 °F 34.3 °F 29.88 in Calm     93% 0.00 in
06:34 36.0 °F 34.2 °F 29.88 in Calm     93% 0.00 in
06:39 36.0 °F 34.2 °F 29.88 in Calm     93% 0.00 in
06:44 35.9 °F 34.1 °F 29.88 in Calm     93% 0.00 in
06:49 35.8 °F 34.0 °F 29.88 in Calm     93% 0.00 in
06:54 35.9 °F 34.1 °F 29.88 in Calm     93% 0.00 in
06:59 35.8 °F 34.0 °F 29.89 in Calm     93% 0.00 in
07:04 35.8 °F 34.0 °F 29.89 in Calm     93% 0.00 in
07:09 35.6 °F 33.8 °F 29.89 in Calm     93% 0.00 in
07:14 35.7 °F 33.9 °F 29.89 in Calm     93% 0.00 in
07:19 35.7 °F 33.9 °F 29.89 in Calm     93% 0.00 in
07:24 36.2 °F 34.6 °F 29.90 in Calm     94% 0.00 in
07:29 36.3 °F 34.7 °F 29.90 in Calm     94% 0.00 in
07:34 36.9 °F 35.3 °F 29.89 in Calm     94% 0.00 in
07:39 37.3 °F 35.7 °F 29.90 in Calm     94% 0.00 in
07:44 37.2 °F 35.4 °F 29.90 in Calm     93% 0.00 in
07:49 36.9 °F 35.1 °F 29.90 in Calm     93% 0.00 in
07:54 37.1 °F 35.5 °F 29.90 in Calm     94% 0.00 in
07:59 36.9 °F 35.3 °F 29.90 in Calm     94% 0.00 in
08:04 36.4 °F 34.6 °F 29.90 in Calm     93% 0.00 in
08:09 36.4 °F 34.6 °F 29.90 in Calm     93% 0.00 in
08:14 36.3 °F 34.5 °F 29.91 in Calm     93% 0.00 in
08:19 36.3 °F 34.5 °F 29.91 in Calm     93% 0.00 in
08:24 36.6 °F 35.0 °F 29.90 in Calm     94% 0.00 in
08:29 36.8 °F 35.2 °F 29.90 in Calm     94% 0.00 in
08:34 37.1 °F 35.5 °F 29.90 in Calm     94% 0.00 in
08:39 37.6 °F 36.0 °F 29.90 in Calm     94% 0.00 in
08:44 38.3 °F 36.7 °F 29.90 in Calm     94% 0.00 in
08:49 38.9 °F 37.3 °F 29.90 in Calm     94% 0.00 in
08:54 39.5 °F 37.9 °F 29.90 in Calm     94% 0.00 in
08:59 40.2 °F 38.6 °F 29.90 in Calm     94% 0.00 in
09:04 40.7 °F 39.1 °F 29.91 in Calm     94% 0.00 in
09:09 41.2 °F 39.9 °F 29.91 in Calm     95% 0.00 in
09:14 41.7 °F 40.4 °F 29.91 in Calm     95% 0.00 in
09:19 42.1 °F 40.5 °F 29.91 in Calm     94% 0.00 in
09:24 42.7 °F 41.1 °F 29.91 in Calm     94% 0.00 in
09:29 42.9 °F 41.3 °F 29.91 in Calm     94% 0.00 in
09:34 43.1 °F 41.5 °F 29.91 in Calm     94% 0.00 in
09:39 43.8 °F 41.9 °F 29.91 in Calm     93% 0.00 in
09:44 44.2 °F 42.0 °F 29.91 in Calm     92% 0.00 in
09:49 44.7 °F 42.5 °F 29.91 in Calm     92% 0.00 in
09:54 45.2 °F 42.7 °F 29.92 in Calm     91% 0.00 in
09:59 45.6 °F 42.5 °F 29.92 in Calm   3.0 mph 89% 0.00 in
10:04 46.0 °F 42.3 °F 29.92 in West 3.0 mph 4.0 mph 87% 0.00 in
10:09 46.3 °F 42.0 °F 29.92 in North 1.0 mph 4.0 mph 85% 0.00 in
10:14 46.9 °F 42.3 °F 29.92 in NW 1.0 mph 4.0 mph 84% 0.00 in
10:19 47.2 °F 41.7 °F 29.92 in WNW 1.0 mph 7.0 mph 81% 0.00 in
10:24 47.4 °F 41.9 °F 29.92 in WNW 2.0 mph 7.0 mph 81% 0.00 in
10:29 47.2 °F 41.3 °F 29.92 in WNW 2.0 mph 5.0 mph 80% 0.00 in
10:34 48.0 °F 41.8 °F 29.91 in NW 2.0 mph 5.0 mph 79% 0.00 in
10:39 47.7 °F 40.5 °F 29.91 in West 4.0 mph 6.0 mph 76% 0.00 in
10:44 47.0 °F 39.8 °F 29.91 in WNW 1.0 mph 5.0 mph 76% 0.00 in
10:49 47.9 °F 41.4 °F 29.91 in Calm   2.0 mph 78% 0.00 in
10:54 48.6 °F 41.0 °F 29.91 in West 4.0 mph 7.0 mph 75% 0.00 in
10:59 48.9 °F 41.3 °F 29.91 in WNW 1.0 mph 7.0 mph 75% 0.00 in
11:04 49.0 °F 41.1 °F 29.91 in NW 5.0 mph 5.0 mph 74% 0.00 in
11:09 49.6 °F 41.3 °F 29.91 in West 1.0 mph 5.0 mph 73% 0.00 in
11:14 48.9 °F 39.9 °F 29.91 in West 2.0 mph 7.0 mph 71% 0.00 in
11:19 48.5 °F 39.2 °F 29.91 in West 3.0 mph 7.0 mph 70% 0.00 in
11:24 49.0 °F 39.6 °F 29.91 in WNW 3.0 mph 6.0 mph 70% 0.00 in
11:29 49.4 °F 40.0 °F 29.91 in WNW 2.0 mph 10.0 mph 70% 0.00 in
11:34 49.8 °F 40.4 °F 29.91 in WNW 3.0 mph 10.0 mph 70% 0.00 in
11:39 50.3 °F 40.5 °F 29.91 in WNW 2.0 mph 7.0 mph 69% 0.00 in
11:44 50.8 °F 40.2 °F 29.90 in WNW 5.0 mph 7.0 mph 67% 0.00 in
11:49 50.8 °F 39.5 °F 29.91 in WNW 4.0 mph 8.0 mph 65% 0.00 in
11:54 51.5 °F 40.5 °F 29.90 in WNW 4.0 mph 8.0 mph 66% 0.00 in
11:59 51.4 °F 38.0 °F 29.91 in West 4.0 mph 10.0 mph 60% 0.00 in
12:09 51.8 °F 39.2 °F 29.90 in NW 3.0 mph 10.0 mph 62% 0.00 in
12:14 51.5 °F 38.1 °F 29.90 in WSW 2.0 mph 10.0 mph 60% 0.00 in
12:19 51.4 °F 37.1 °F 29.90 in WNW 3.0 mph 7.0 mph 58% 0.00 in
12:24 50.4 °F 36.6 °F 29.90 in West 4.0 mph 7.0 mph 59% 0.00 in
12:29 49.3 °F 36.4 °F 29.89 in WSW 3.0 mph 7.0 mph 61% 0.00 in
12:34 50.3 °F 36.1 °F 29.89 in WSW 2.0 mph 6.0 mph 58% 0.00 in
12:39 50.6 °F 37.2 °F 29.89 in West 3.0 mph 8.0 mph 60% 0.00 in
12:44 50.5 °F 34.9 °F 29.89 in West 3.0 mph 8.0 mph 55% 0.00 in
12:49 49.6 °F 35.4 °F 29.89 in WNW 1.0 mph 6.0 mph 58% 0.00 in
12:54 48.8 °F 35.1 °F 29.89 in WNW 2.0 mph 5.0 mph 59% 0.00 in
12:59 48.9 °F 35.6 °F 29.88 in WSW 4.0 mph 6.0 mph 60% 0.00 in
13:04 51.2 °F 37.4 °F 29.88 in WNW 7.0 mph 7.0 mph 59% 0.00 in
13:09 52.7 °F 36.5 °F 29.88 in West 5.0 mph 10.0 mph 54% 0.00 in
13:14 52.9 °F 35.2 °F 29.88 in West 7.0 mph 10.0 mph 51% 0.00 in
13:19 51.4 °F 34.3 °F 29.88 in WNW 7.0 mph 8.0 mph 52% 0.00 in
13:24 50.6 °F 34.1 °F 29.88 in WSW 6.0 mph 10.0 mph 53% 0.00 in
13:29 50.6 °F 35.9 °F 29.88 in WSW 3.0 mph 8.0 mph 57% 0.00 in
13:34 50.5 °F 36.3 °F 29.88 in West 4.0 mph 8.0 mph 58% 0.00 in
13:39 50.5 °F 37.5 °F 29.88 in WSW 4.0 mph 10.0 mph 61% 0.00 in
13:44 50.6 °F 37.6 °F 29.87 in WSW 4.0 mph 10.0 mph 61% 0.00 in
13:49 51.4 °F 38.8 °F 29.88 in WSW 4.0 mph 11.0 mph 62% 0.00 in
13:54 52.4 °F 40.2 °F 29.88 in WSW 5.0 mph 11.0 mph 63% 0.00 in
13:59 52.3 °F 37.5 °F 29.88 in WSW 5.0 mph 12.0 mph 57% 0.00 in
14:04 51.1 °F 36.4 °F 29.88 in WSW 6.0 mph 13.0 mph 57% 0.00 in
14:09 51.7 °F 37.4 °F 29.88 in WNW 4.0 mph 10.0 mph 58% 0.00 in
14:14 52.9 °F 38.1 °F 29.88 in SW 7.0 mph 11.0 mph 57% 0.00 in
14:19 51.6 °F 37.3 °F 29.88 in WSW 1.0 mph 8.0 mph 58% 0.00 in
14:24 51.1 °F 36.8 °F 29.88 in WSW 1.0 mph 12.0 mph 58% 0.00 in
14:29 51.0 °F 37.2 °F 29.87 in SW 5.0 mph 12.0 mph 59% 0.00 in
14:34 50.9 °F 36.6 °F 29.87 in West 1.0 mph 13.0 mph 58% 0.00 in
14:39 52.8 °F 38.0 °F 29.87 in West 5.0 mph 11.0 mph 57% 0.00 in
14:44 52.0 °F 37.2 °F 29.88 in WSW 6.0 mph 12.0 mph 57% 0.00 in
14:49 52.7 °F 37.9 °F 29.88 in WSW 6.0 mph 12.0 mph 57% 0.00 in
14:54 52.2 °F 37.9 °F 29.88 in West 6.0 mph 14.0 mph 58% 0.00 in
14:59 52.6 °F 37.8 °F 29.87 in WSW 5.0 mph 14.0 mph 57% 0.00 in
15:04 52.2 °F 36.5 °F 29.87 in WSW 6.0 mph 11.0 mph 55% 0.00 in
15:09 51.2 °F 36.5 °F 29.88 in WSW 6.0 mph 10.0 mph 57% 0.00 in
15:14 50.9 °F 37.1 °F 29.88 in West 2.0 mph 7.0 mph 59% 0.00 in
15:19 50.8 °F 36.5 °F 29.88 in NW 3.0 mph 11.0 mph 58% 0.00 in
15:24 50.9 °F 37.1 °F 29.88 in WNW 9.0 mph 14.0 mph 59% 0.00 in
15:29 50.9 °F 37.9 °F 29.88 in WNW 6.0 mph 11.0 mph 61% 0.00 in
15:34 50.9 °F 37.1 °F 29.88 in West 5.0 mph 9.0 mph 59% 0.00 in
15:39 51.0 °F 37.2 °F 29.88 in WSW 4.0 mph 9.0 mph 59% 0.00 in
15:44 51.3 °F 37.4 °F 29.88 in WNW 3.0 mph 9.0 mph 59% 0.00 in
15:49 51.4 °F 37.5 °F 29.88 in West 3.0 mph 9.0 mph 59% 0.00 in
15:54 51.0 °F 36.7 °F 29.88 in West 4.0 mph 10.0 mph 58% 0.00 in
15:59 50.4 °F 35.7 °F 29.88 in West 4.0 mph 10.0 mph 57% 0.00 in
16:04 50.1 °F 35.9 °F 29.88 in West 4.0 mph 9.0 mph 58% 0.00 in
16:09 50.2 °F 36.8 °F 29.88 in WNW 3.0 mph 7.0 mph 60% 0.00 in
16:14 50.2 °F 36.8 °F 29.89 in West 2.0 mph 6.0 mph 60% 0.00 in
16:19 50.3 °F 36.5 °F 29.88 in WSW 7.0 mph 7.0 mph 59% 0.00 in
16:24 50.4 °F 36.2 °F 29.89 in SW 5.0 mph 10.0 mph 58% 0.00 in
16:29 50.4 °F 37.0 °F 29.89 in WSW 2.0 mph 7.0 mph 60% 0.00 in
16:34 50.5 °F 37.1 °F 29.89 in West 5.0 mph 9.0 mph 60% 0.00 in
16:39 50.3 °F 36.9 °F 29.89 in WSW 3.0 mph 12.0 mph 60% 0.00 in
16:44 50.6 °F 36.8 °F 29.89 in SW 5.0 mph 13.0 mph 59% 0.00 in
16:49 50.8 °F 37.0 °F 29.89 in WSW 8.0 mph 13.0 mph 59% 0.00 in
16:54 51.0 °F 37.2 °F 29.88 in WSW 7.0 mph 11.0 mph 59% 0.00 in
16:59 51.5 °F 36.8 °F 29.88 in WSW 5.0 mph 11.0 mph 57% 0.00 in
17:04 51.8 °F 37.9 °F 29.88 in West 5.0 mph 11.0 mph 59% 0.00 in
17:09 52.0 °F 37.7 °F 29.88 in West 5.0 mph 10.0 mph 58% 0.00 in
17:14 51.9 °F 38.0 °F 29.88 in West 4.0 mph 9.0 mph 59% 0.00 in
17:19 51.5 °F 37.2 °F 29.88 in WSW 4.0 mph 9.0 mph 58% 0.00 in
17:24 51.2 °F 36.9 °F 29.89 in West 4.0 mph 8.0 mph 58% 0.00 in
17:29 51.2 °F 36.5 °F 29.89 in West 4.0 mph 9.0 mph 57% 0.00 in
17:34 50.9 °F 36.6 °F 29.89 in West 3.0 mph 9.0 mph 58% 0.00 in
17:39 50.4 °F 36.6 °F 29.89 in WNW 3.0 mph 6.0 mph 59% 0.00 in
17:44 50.0 °F 36.2 °F 29.89 in WNW 2.0 mph 5.0 mph 59% 0.00 in
17:49 49.6 °F 36.3 °F 29.89 in WNW 3.0 mph 5.0 mph 60% 0.00 in
17:54 49.4 °F 35.7 °F 29.89 in West 1.0 mph 6.0 mph 59% 0.00 in
17:59 49.2 °F 35.5 °F 29.89 in West 2.0 mph 7.0 mph 59% 0.00 in
18:04 48.9 °F 35.2 °F 29.89 in West 3.0 mph 7.0 mph 59% 0.00 in
18:09 48.7 °F 35.0 °F 29.89 in West 2.0 mph 5.0 mph 59% 0.00 in
18:14 48.7 °F 35.0 °F 29.89 in West 2.0 mph 5.0 mph 59% 0.00 in
18:19 48.5 °F 34.8 °F 29.89 in West 2.0 mph 5.0 mph 59% 0.00 in
18:24 48.2 °F 34.5 °F 29.89 in WSW 2.0 mph 4.0 mph 59% 0.00 in
18:29 48.0 °F 34.8 °F 29.90 in West 2.0 mph 4.0 mph 60% 0.00 in
18:34 47.7 °F 34.5 °F 29.90 in West 2.0 mph 3.0 mph 60% 0.00 in
18:39 47.4 °F 34.6 °F 29.90 in West 1.0 mph 3.0 mph 61% 0.00 in
18:44 47.2 °F 34.4 °F 29.90 in West 1.0 mph 4.0 mph 61% 0.00 in
18:49 46.9 °F 34.1 °F 29.90 in West 1.0 mph 4.0 mph 61% 0.00 in
18:54 46.6 °F 34.3 °F 29.90 in West 1.0 mph 2.0 mph 62% 0.00 in
18:59 46.0 °F 34.9 °F 29.90 in West 1.0 mph 2.0 mph 65% 0.00 in
19:04 45.4 °F 34.7 °F 29.90 in Calm     66% 0.00 in
19:09 44.9 °F 34.6 °F 29.90 in Calm     67% 0.00 in
19:14 44.6 °F 34.3 °F 29.91 in Calm     67% 0.00 in
19:19 44.2 °F 34.3 °F 29.91 in Calm     68% 0.00 in
19:24 43.6 °F 34.1 °F 29.91 in Calm     69% 0.00 in
19:29 43.1 °F 34.3 °F 29.91 in Calm     71% 0.00 in
19:34 42.9 °F 34.5 °F 29.91 in Calm     72% 0.00 in
19:39 42.7 °F 34.6 °F 29.91 in Calm     73% 0.00 in
19:44 42.2 °F 34.5 °F 29.91 in Calm     74% 0.00 in
19:49 41.9 °F 34.2 °F 29.91 in Calm     74% 0.00 in
19:54 41.8 °F 34.5 °F 29.91 in Calm     75% 0.00 in
19:59 41.6 °F 34.6 °F 29.91 in Calm     76% 0.00 in
20:04 41.3 °F 34.3 °F 29.92 in Calm     76% 0.00 in
20:09 40.9 °F 34.2 °F 29.92 in Calm     77% 0.00 in
20:14 40.6 °F 34.0 °F 29.92 in Calm     77% 0.00 in
20:19 40.6 °F 34.3 °F 29.91 in Calm     78% 0.00 in
20:24 40.3 °F 34.0 °F 29.92 in Calm     78% 0.00 in
20:29 40.2 °F 33.9 °F 29.92 in Calm     78% 0.00 in
20:34 40.1 °F 34.1 °F 29.91 in Calm     79% 0.00 in
20:39 40.0 °F 34.0 °F 29.91 in Calm     79% 0.00 in
20:44 39.9 °F 33.9 °F 29.92 in Calm     79% 0.00 in
20:49 39.6 °F 33.6 °F 29.92 in Calm     79% 0.00 in
20:54 39.6 °F 33.9 °F 29.92 in Calm     80% 0.00 in
20:59 39.6 °F 33.9 °F 29.92 in Calm     80% 0.00 in
21:04 39.6 °F 33.9 °F 29.92 in Calm     80% 0.00 in
21:09 39.4 °F 33.7 °F 29.92 in Calm     80% 0.00 in
21:14 39.3 °F 33.6 °F 29.92 in Calm     80% 0.00 in
21:19 39.2 °F 33.9 °F 29.92 in Calm     81% 0.00 in
21:24 39.0 °F 33.7 °F 29.92 in Calm     81% 0.00 in
21:29 38.8 °F 33.8 °F 29.92 in Calm     82% 0.00 in
21:34 38.6 °F 33.6 °F 29.92 in Calm     82% 0.00 in
21:39 38.5 °F 33.8 °F 29.92 in Calm     83% 0.00 in
21:44 38.4 °F 33.7 °F 29.92 in Calm     83% 0.00 in
21:49 38.2 °F 33.5 °F 29.92 in Calm     83% 0.00 in
21:54 38.0 °F 33.3 °F 29.92 in Calm     83% 0.00 in
21:59 37.9 °F 33.5 °F 29.92 in Calm     84% 0.00 in
22:04 37.8 °F 33.4 °F 29.92 in Calm     84% 0.00 in
22:09 37.6 °F 33.2 °F 29.92 in Calm     84% 0.00 in
22:14 37.5 °F 33.4 °F 29.92 in Calm     85% 0.00 in
22:19 37.4 °F 33.3 °F 29.92 in Calm     85% 0.00 in
22:24 37.3 °F 33.2 °F 29.92 in Calm     85% 0.00 in
22:29 37.2 °F 33.1 °F 29.92 in Calm     85% 0.00 in
22:34 37.1 °F 33.3 °F 29.92 in Calm     86% 0.00 in
22:39 37.1 °F 33.3 °F 29.92 in Calm     86% 0.00 in
22:44 36.9 °F 33.1 °F 29.92 in Calm     86% 0.00 in
22:49 36.9 °F 33.1 °F 29.92 in Calm     86% 0.00 in
22:54 37.2 °F 33.4 °F 29.92 in Calm     86% 0.00 in
22:59 37.4 °F 33.6 °F 29.92 in Calm     86% 0.00 in
23:04 37.5 °F 33.4 °F 29.92 in Calm     85% 0.00 in
23:09 37.7 °F 33.6 °F 29.92 in Calm     85% 0.00 in
23:14 38.0 °F 33.6 °F 29.92 in Calm     84% 0.00 in
23:19 38.3 °F 33.9 °F 29.92 in Calm     84% 0.00 in
23:24 38.2 °F 33.5 °F 29.92 in Calm     83% 0.00 in
23:29 38.0 °F 33.3 °F 29.92 in Calm     83% 0.00 in
23:34 37.7 °F 33.0 °F 29.92 in Calm     83% 0.00 in
23:39 37.7 °F 33.3 °F 29.92 in Calm     84% 0.00 in
23:44 37.6 °F 33.2 °F 29.92 in Calm     84% 0.00 in
23:49 37.5 °F 33.1 °F 29.92 in Calm     84% 0.00 in
23:54 37.1 °F 32.7 °F 29.92 in Calm     84% 0.00 in
23:59 37.0 °F 32.9 °F 29.92 in Calm     85% 0.00 in
Buffalo, New York, USA
Compliments of Weather Underground - 2.5 mb